Time;durP1;ratioP1;P1;durP2;ratioP2;P2;SDS_P1;SDS_P2;PMS_P1;PMS_P2;Temp;Humidity;BMP_temperature;BMP_pressure;BME280_temperature;BME280_humidity;BME280_pressure;Samples;Min_cycle;Max_cycle;Signal;HPM_P1;HPM_P2
2022/04/07 00:02:04;;;;;;;2.37;1.73;;;20.60;50.00;;;;;;5060787;27;89032;-75
2022/04/07 00:04:33;;;;;;;3.30;2.07;;;20.60;50.10;;;;;;5051052;27;88386;-74
2022/04/07 00:07:01;;;;;;;4.03;2.20;;;20.50;50.00;;;;;;5046193;27;88643;-75
2022/04/07 00:09:29;;;;;;;4.27;2.20;;;20.50;50.00;;;;;;5059136;27;90187;-74
2022/04/07 00:11:57;;;;;;;3.10;1.80;;;20.50;50.00;;;;;;5058864;27;90399;-75
2022/04/07 00:14:26;;;;;;;3.17;2.00;;;20.50;50.00;;;;;;5050500;27;88461;-75
2022/04/07 00:16:54;;;;;;;3.90;2.20;;;20.50;50.00;;;;;;5041267;27;88589;-75
2022/04/07 00:19:22;;;;;;;4.60;2.27;;;20.40;49.90;;;;;;5041005;28;93015;-75
2022/04/07 00:21:50;;;;;;;4.07;2.17;;;20.40;49.90;;;;;;5040292;28;92939;-75
2022/04/07 00:24:19;;;;;;;4.27;2.00;;;20.40;49.90;;;;;;5040560;28;88680;-74
2022/04/07 00:26:47;;;;;;;4.60;2.13;;;20.40;49.90;;;;;;5041102;28;88389;-75
2022/04/07 00:29:15;;;;;;;4.13;2.73;;;20.40;49.90;;;;;;5045387;27;88573;-74
2022/04/07 00:31:44;;;;;;;3.07;2.13;;;20.40;49.80;;;;;;5044012;27;90481;-74
2022/04/07 00:34:12;;;;;;;4.30;2.20;;;20.40;49.80;;;;;;5047767;27;91142;-75
2022/04/07 00:36:41;;;;;;;5.83;2.40;;;20.40;49.80;;;;;;5037470;27;88659;-74
2022/04/07 00:39:09;;;;;;;3.33;2.10;;;20.40;49.80;;;;;;5043843;27;89409;-74
2022/04/07 00:41:39;;;;;;;4.50;2.57;;;20.30;49.80;;;;;;5049094;27;89506;-74
2022/04/07 00:44:08;;;;;;;2.90;2.10;;;20.30;49.80;;;;;;5053252;27;88981;-74
2022/04/07 00:46:39;;;;;;;3.70;2.50;;;20.30;50.00;;;;;;5055118;27;88290;-74
2022/04/07 00:49:09;;;;;;;3.43;2.50;;;20.30;49.70;;;;;;5055492;27;90681;-74
2022/04/07 00:51:39;;;;;;;3.17;1.97;;;20.30;49.70;;;;;;5048410;27;92170;-74
2022/04/07 00:54:08;;;;;;;3.57;2.10;;;20.30;49.70;;;;;;5040916;27;88533;-74
2022/04/07 00:56:36;;;;;;;2.83;1.53;;;20.30;49.70;;;;;;5056797;27;88634;-74
2022/04/07 00:59:05;;;;;;;5.43;2.60;;;20.30;49.70;;;;;;5046825;27;89972;-75
2022/04/07 01:01:33;;;;;;;5.40;2.87;;;20.30;49.70;;;;;;5047860;27;89963;-75
2022/04/07 01:04:01;;;;;;;5.03;2.43;;;20.30;49.70;;;;;;5044265;27;88593;-74
2022/04/07 01:06:31;;;;;;;3.17;2.00;;;20.30;49.70;;;;;;5056585;27;88689;-75
2022/04/07 01:08:59;;;;;;;4.63;2.40;;;20.30;49.70;;;;;;5052553;27;91027;-75
2022/04/07 01:11:27;;;;;;;5.97;2.27;;;20.20;49.60;;;;;;5053060;27;90625;-76
2022/04/07 01:13:55;;;;;;;4.90;2.37;;;20.20;49.60;;;;;;5045131;27;89890;-75
2022/04/07 01:16:27;;;;;;;4.47;2.03;;;20.20;49.50;;;;;;5052988;27;88721;-74
2022/04/07 01:18:55;;;;;;;6.20;2.20;;;20.20;49.50;;;;;;5052810;27;90758;-75
2022/04/07 01:21:23;;;;;;;3.77;2.13;;;20.20;49.50;;;;;;5055611;27;89196;-73
2022/04/07 01:23:56;;;;;;;2.60;1.47;;;20.20;49.50;;;;;;5048630;27;89552;-73
2022/04/07 01:26:26;;;;;;;3.77;2.27;;;20.20;49.50;;;;;;5056177;27;88551;-75
2022/04/07 01:28:54;;;;;;;2.70;2.07;;;20.20;49.50;;;;;;5062538;27;91028;-74
2022/04/07 01:31:22;;;;;;;3.17;2.03;;;20.20;49.50;;;;;;5053836;27;89282;-74
2022/04/07 01:33:50;;;;;;;2.40;1.90;;;20.20;50.20;;;;;;5044578;27;88940;-73
2022/04/07 01:36:18;;;;;;;3.90;1.90;;;20.10;49.40;;;;;;5056119;27;88691;-73
2022/04/07 01:38:46;;;;;;;2.17;1.77;;;20.10;49.40;;;;;;5059086;27;89442;-73
2022/04/07 01:41:14;;;;;;;5.57;2.03;;;20.10;49.40;;;;;;5041957;27;89181;-74
2022/04/07 01:43:44;;;;;;;3.07;1.87;;;20.10;49.40;;;;;;5045193;27;89732;-74
2022/04/07 01:46:13;;;;;;;6.27;1.80;;;20.10;49.40;;;;;;5051570;27;88709;-75
2022/04/07 01:48:41;;;;;;;5.10;1.97;;;20.10;49.40;;;;;;5042385;27;89320;-74
2022/04/07 01:51:09;;;;;;;3.77;2.07;;;20.10;49.40;;;;;;5041742;27;89206;-74
2022/04/07 01:53:38;;;;;;;3.47;2.10;;;20.10;49.30;;;;;;5042084;27;88766;-75
2022/04/07 01:56:08;;;;;;;6.03;2.53;;;20.10;49.30;;;;;;5042260;27;88648;-74
2022/04/07 01:58:37;;;;;;;3.93;1.57;;;20.10;49.30;;;;;;5055307;27;90196;-74
2022/04/07 02:01:06;;;;;;;3.63;1.87;;;20.10;49.30;;;;;;5062525;27;88846;-74
2022/04/07 02:03:34;;;;;;;3.40;1.80;;;20.10;49.30;;;;;;5052296;27;88364;-75
2022/04/07 02:06:12;;;;;;;4.77;2.33;;;20.10;49.40;;;;;;5046515;27;88682;-74
2022/04/07 02:08:40;;;;;;;2.47;1.53;;;20.10;49.40;;;;;;5056854;27;90172;-76
2022/04/07 02:11:10;;;;;;;2.33;1.60;;;20.10;49.30;;;;;;5058462;27;89285;-74
2022/04/07 02:13:39;;;;;;;3.43;1.90;;;20.00;49.30;;;;;;5041741;27;89811;-75
2022/04/07 02:16:09;;;;;;;4.23;1.47;;;20.10;49.30;;;;;;5047584;27;88634;-74
2022/04/07 02:18:38;;;;;;;4.47;1.77;;;20.10;49.30;;;;;;5044509;27;89491;-74
2022/04/07 02:21:06;;;;;;;3.07;1.83;;;20.10;49.30;;;;;;5041748;27;88830;-74
2022/04/07 02:23:41;;;;;;;3.90;2.20;;;20.10;49.30;;;;;;5041871;27;88291;-74
2022/04/07 02:26:11;;;;;;;4.10;2.10;;;20.10;49.30;;;;;;5050361;27;88395;-76
2022/04/07 02:28:39;;;;;;;5.80;1.67;;;20.00;49.20;;;;;;5041287;27;89653;-76
2022/04/07 02:31:08;;;;;;;3.57;2.00;;;20.00;49.20;;;;;;5042792;27;90549;-76
2022/04/07 02:33:36;;;;;;;4.97;2.10;;;20.00;49.20;;;;;;5060119;27;88924;-77
2022/04/07 02:36:05;;;;;;;2.03;1.50;;;20.00;49.20;;;;;;5041904;27;88528;-75
2022/04/07 02:38:34;;;;;;;3.60;1.80;;;20.00;49.20;;;;;;5041775;27;91043;-76
2022/04/07 02:41:02;;;;;;;4.33;2.20;;;20.00;49.20;;;;;;5060486;27;91416;-76
2022/04/07 02:43:30;;;;;;;5.23;1.90;;;20.00;49.20;;;;;;5061791;27;91817;-74
2022/04/07 02:45:58;;;;;;;4.93;1.93;;;20.00;49.20;;;;;;5044038;27;88478;-76
2022/04/07 02:48:28;;;;;;;3.30;1.83;;;20.00;49.20;;;;;;5044998;27;91011;-76
2022/04/07 02:50:56;;;;;;;3.20;1.50;;;19.90;49.00;;;;;;5037431;27;89100;-76
2022/04/07 02:53:24;;;;;;;4.63;1.97;;;19.90;49.00;;;;;;5043763;27;88574;-75
2022/04/07 02:55:53;;;;;;;3.63;1.90;;;20.00;49.70;;;;;;5047426;27;88442;-74
2022/04/07 02:58:21;;;;;;;3.70;1.73;;;20.00;49.10;;;;;;5041716;27;90706;-74
2022/04/07 03:00:49;;;;;;;4.63;1.50;;;19.90;49.00;;;;;;5046203;27;88979;-75
2022/04/07 03:03:17;;;;;;;8.23;1.77;;;19.90;49.00;;;;;;5034604;27;88876;-74
2022/04/07 03:05:46;;;;;;;3.30;1.57;;;19.90;49.00;;;;;;5038312;27;88659;-74
2022/04/07 03:08:15;;;;;;;4.20;1.80;;;19.90;49.00;;;;;;5024517;27;89505;-74
2022/04/07 03:10:42;;;;;;;6.17;1.40;;;19.90;49.00;;;;;;5057910;27;89779;-74
2022/04/07 03:13:11;;;;;;;5.43;1.67;;;19.90;49.00;;;;;;5024347;27;90780;-75
2022/04/07 03:15:39;;;;;;;4.60;1.57;;;19.90;49.00;;;;;;5059609;27;88631;-75
2022/04/07 03:18:08;;;;;;;4.33;2.17;;;19.90;49.00;;;;;;5048822;27;90171;-74
2022/04/07 03:20:38;;;;;;;3.23;1.80;;;19.90;49.00;;;;;;5055460;27;88776;-75
2022/04/07 03:23:08;;;;;;;3.03;1.83;;;19.90;49.00;;;;;;5041965;27;88414;-74
2022/04/07 03:25:37;;;;;;;5.70;2.33;;;19.90;49.70;;;;;;5050157;27;88355;-75
2022/04/07 03:28:06;;;;;;;2.23;1.50;;;19.90;49.00;;;;;;5060319;27;89617;-75
2022/04/07 03:30:34;;;;;;;1.93;1.40;;;19.80;48.90;;;;;;5059980;27;90450;-75
2022/04/07 03:33:02;;;;;;;2.17;1.33;;;19.90;49.00;;;;;;5058997;27;88368;-75
2022/04/07 03:35:30;;;;;;;3.90;1.87;;;19.90;49.00;;;;;;5042071;27;88334;-75
2022/04/07 03:37:58;;;;;;;4.53;1.80;;;19.90;49.00;;;;;;5058207;27;91016;-75
2022/04/07 03:40:27;;;;;;;5.40;1.50;;;19.90;49.60;;;;;;5042136;27;90534;-76
2022/04/07 03:42:55;;;;;;;3.77;1.80;;;19.90;48.90;;;;;;5041224;27;88987;-75
2022/04/07 03:45:23;;;;;;;5.10;1.83;;;19.90;49.60;;;;;;5041907;27;88435;-74
2022/04/07 03:47:51;;;;;;;4.00;1.70;;;19.90;49.00;;;;;;5041890;27;89688;-75
2022/04/07 03:50:19;;;;;;;5.43;1.80;;;19.90;48.90;;;;;;5039984;27;90491;-76
2022/04/07 03:52:47;;;;;;;3.00;1.43;;;19.90;48.90;;;;;;5048802;27;88778;-76
2022/04/07 03:55:15;;;;;;;3.67;1.73;;;19.90;48.90;;;;;;5041060;27;88716;-76
2022/04/07 03:57:45;;;;;;;1.77;1.43;;;19.80;48.90;;;;;;5048736;27;93001;-76
2022/04/07 04:00:16;;;;;;;3.07;1.83;;;19.80;48.80;;;;;;5043381;27;90307;-75
2022/04/07 04:02:44;;;;;;;2.60;1.70;;;19.80;48.80;;;;;;5049905;27;88766;-76
2022/04/07 04:05:12;;;;;;;8.57;2.20;;;19.80;48.80;;;;;;5041047;27;88648;-76
2022/04/07 04:07:40;;;;;;;4.37;1.87;;;19.80;48.90;;;;;;5041024;27;89169;-77
2022/04/07 04:10:09;;;;;;;6.03;1.97;;;19.80;48.80;;;;;;5048603;27;93014;-77
2022/04/07 04:12:39;;;;;;;4.87;1.83;;;19.80;48.80;;;;;;5061992;27;90570;-76
2022/04/07 04:15:12;;;;;;;4.30;2.00;;;19.80;48.80;;;;;;5054751;27;88614;-75
2022/04/07 04:17:40;;;;;;;4.87;1.50;;;19.70;48.80;;;;;;5044409;27;89330;-77
2022/04/07 04:20:10;;;;;;;4.50;1.90;;;19.80;48.80;;;;;;5045650;27;91718;-77
2022/04/07 04:22:38;;;;;;;3.53;1.60;;;19.80;48.80;;;;;;5057994;27;88418;-77
2022/04/07 04:25:09;;;;;;;6.23;1.50;;;19.80;48.80;;;;;;5051792;27;88392;-77
2022/04/07 04:27:37;;;;;;;3.07;1.10;;;19.80;48.80;;;;;;5041441;27;90588;-77
2022/04/07 04:30:06;;;;;;;2.23;1.47;;;19.70;48.70;;;;;;5041072;27;89064;-76
2022/04/07 04:32:36;;;;;;;3.50;1.37;;;19.80;48.80;;;;;;5041881;27;88519;-76
2022/04/07 04:35:05;;;;;;;2.93;1.47;;;19.70;48.70;;;;;;5040745;27;88486;-73
2022/04/07 04:37:33;;;;;;;4.63;1.87;;;19.70;48.70;;;;;;5056827;27;89301;-76
2022/04/07 04:40:01;;;;;;;5.97;1.00;;;19.70;48.70;;;;;;5054859;27;93202;-75
2022/04/07 04:42:29;;;;;;;3.27;1.20;;;19.70;48.70;;;;;;5040851;28;89190;-76
2022/04/07 04:44:57;;;;;;;5.10;1.53;;;19.70;48.70;;;;;;5038147;27;89486;-76
2022/04/07 04:47:25;;;;;;;4.77;1.70;;;19.70;48.70;;;;;;5031549;27;90292;-76
2022/04/07 04:49:54;;;;;;;3.27;1.40;;;19.70;48.70;;;;;;5033117;27;88875;-76
2022/04/07 04:52:22;;;;;;;4.17;1.33;;;19.70;48.70;;;;;;5035163;27;88525;-76
2022/04/07 04:54:50;;;;;;;3.00;1.20;;;19.70;48.70;;;;;;5035935;27;89481;-76
2022/04/07 04:57:19;;;;;;;1.83;1.00;;;19.70;48.70;;;;;;5040063;27;92541;-76
2022/04/07 04:59:47;;;;;;;3.70;1.13;;;19.70;48.70;;;;;;5049799;27;89330;-75
2022/04/07 05:02:15;;;;;;;2.20;1.07;;;19.70;48.70;;;;;;5046236;27;90108;-76
2022/04/07 05:04:49;;;;;;;3.03;1.33;;;19.70;48.70;;;;;;5044930;27;89538;-77
2022/04/07 05:07:18;;;;;;;1.80;1.40;;;19.70;48.70;;;;;;5055612;27;91266;-77
2022/04/07 05:09:46;;;;;;;2.57;1.30;;;19.70;48.70;;;;;;5040009;27;89126;-76
2022/04/07 05:12:14;;;;;;;2.87;1.23;;;19.70;48.70;;;;;;5041078;27;88657;-77
2022/04/07 05:14:42;;;;;;;2.57;0.97;;;19.70;48.70;;;;;;5054272;27;88696;-77
2022/04/07 05:17:10;;;;;;;2.03;1.30;;;19.70;48.70;;;;;;5060469;27;90378;-76
2022/04/07 05:19:38;;;;;;;1.83;1.27;;;19.70;48.70;;;;;;5051427;27;88895;-77
2022/04/07 05:22:06;;;;;;;2.43;1.00;;;19.70;48.70;;;;;;5042669;27;88932;-76
2022/04/07 05:24:38;;;;;;;2.90;1.33;;;19.60;48.60;;;;;;5041650;27;88467;-75
2022/04/07 05:27:06;;;;;;;2.23;1.00;;;19.60;48.60;;;;;;5042747;27;90579;-77
2022/04/07 05:29:34;;;;;;;2.40;1.20;;;19.60;48.60;;;;;;5053543;27;89456;-76
2022/04/07 05:32:03;;;;;;;3.33;1.50;;;19.60;48.60;;;;;;5044179;27;89733;-76
2022/04/07 05:34:32;;;;;;;3.13;1.40;;;19.60;48.60;;;;;;5046221;27;88680;-77
2022/04/07 05:37:00;;;;;;;3.13;1.30;;;19.60;48.60;;;;;;5042720;27;89291;-77
2022/04/07 05:39:28;;;;;;;2.00;1.20;;;19.60;48.60;;;;;;5045335;27;92771;-77
2022/04/07 05:41:58;;;;;;;3.07;1.50;;;19.60;48.60;;;;;;5042683;27;88458;-78
2022/04/07 05:44:26;;;;;;;1.87;1.40;;;19.60;48.60;;;;;;5044699;27;88642;-78
2022/04/07 05:46:54;;;;;;;3.23;1.47;;;19.60;48.60;;;;;;5042849;27;91505;-78
2022/04/07 05:49:22;;;;;;;5.17;1.27;;;19.60;48.60;;;;;;5042620;27;93316;-78
2022/04/07 05:51:53;;;;;;;5.03;1.53;;;19.60;48.60;;;;;;5047185;27;88819;-78
2022/04/07 05:54:21;;;;;;;1.93;1.23;;;19.60;48.60;;;;;;5051531;27;88437;-76
2022/04/07 05:56:49;;;;;;;4.03;1.73;;;19.60;48.60;;;;;;5056396;27;93763;-74
2022/04/07 05:59:19;;;;;;;3.17;1.30;;;19.50;48.50;;;;;;5043045;27;90071;-73
2022/04/07 06:01:47;;;;;;;2.67;1.47;;;19.60;48.60;;;;;;5043292;27;88386;-73
2022/04/07 06:04:15;;;;;;;1.77;1.50;;;19.60;48.70;;;;;;5047042;27;88422;-73
2022/04/07 06:06:44;;;;;;;1.90;1.17;;;19.60;48.80;;;;;;5059183;27;90601;-73
2022/04/07 06:09:12;;;;;;;4.03;1.43;;;19.60;48.80;;;;;;5051291;27;90065;-72
2022/04/07 06:11:40;;;;;;;5.63;1.80;;;19.60;48.90;;;;;;5043054;27;88871;-72
2022/04/07 06:14:08;;;;;;;5.83;2.07;;;19.70;49.10;;;;;;5048040;27;88609;-71
2022/04/07 06:16:37;;;;;;;6.67;2.33;;;19.70;49.10;;;;;;5044266;27;90715;-71
2022/04/07 06:19:05;;;;;;;4.97;2.17;;;19.70;49.30;;;;;;5041911;27;92028;-72
2022/04/07 06:21:34;;;;;;;7.50;2.17;;;19.70;50.00;;;;;;5048102;27;91382;-71
2022/04/07 06:24:02;;;;;;;3.10;1.60;;;19.70;49.50;;;;;;5041834;27;88467;-71
2022/04/07 06:26:30;;;;;;;5.83;1.90;;;19.80;49.70;;;;;;5040328;27;90964;-70
2022/04/07 06:28:58;;;;;;;10.33;1.87;;;19.80;49.80;;;;;;5041261;27;88913;-71
2022/04/07 06:31:26;;;;;;;8.50;1.70;;;19.90;49.90;;;;;;5041923;27;88814;-71
2022/04/07 06:34:00;;;;;;;6.23;1.80;;;19.90;50.10;;;;;;5043334;27;88451;-70
2022/04/07 06:36:35;;;;;;;3.83;1.73;;;19.90;50.10;;;;;;5040324;27;92280;-71
2022/04/07 06:39:04;;;;;;;6.97;2.00;;;19.90;50.20;;;;;;5047496;27;89964;-70
2022/04/07 06:41:32;;;;;;;2.17;1.60;;;19.90;50.30;;;;;;5047276;27;88744;-71
2022/04/07 06:44:00;;;;;;;6.07;1.70;;;19.90;50.40;;;;;;5039417;27;88600;-70
2022/04/07 06:46:28;;;;;;;4.20;1.67;;;19.90;50.50;;;;;;5037687;28;90836;-70
2022/04/07 06:48:56;;;;;;;2.10;1.27;;;19.60;50.30;;;;;;5042736;27;90765;-70
2022/04/07 06:51:27;;;;;;;2.33;1.50;;;19.90;50.50;;;;;;5044559;27;88848;-69
2022/04/07 06:53:55;;;;;;;4.23;1.43;;;19.90;50.60;;;;;;5040731;27;88482;-69
2022/04/07 06:56:24;;;;;;;3.83;1.67;;;19.90;50.60;;;;;;5041042;27;90594;-68
2022/04/07 06:58:53;;;;;;;4.07;1.27;;;19.90;50.60;;;;;;5048332;27;93217;-71
2022/04/07 07:01:21;;;;;;;3.63;1.30;;;19.90;50.60;;;;;;5062561;27;89052;-67
2022/04/07 07:03:50;;;;;;;5.17;1.23;;;19.90;50.70;;;;;;5053185;27;88510;-69
2022/04/07 07:06:18;;;;;;;2.47;1.53;;;19.90;50.70;;;;;;5041069;28;92783;-70
2022/04/07 07:08:47;;;;;;;6.27;1.83;;;19.90;50.70;;;;;;5046782;27;88894;-68
2022/04/07 07:11:15;;;;;;;4.03;1.30;;;19.90;50.70;;;;;;5050041;27;89802;-70
2022/04/07 07:13:43;;;;;;;2.57;1.23;;;19.90;50.70;;;;;;5044213;27;88374;-68
2022/04/07 07:16:11;;;;;;;1.90;1.43;;;19.90;50.60;;;;;;5061305;27;89431;-68
2022/04/07 07:18:42;;;;;;;2.87;1.67;;;19.90;50.60;;;;;;5056644;27;89633;-71
2022/04/07 07:21:10;;;;;;;2.30;1.57;;;19.90;50.60;;;;;;5061750;27;89656;-70
2022/04/07 07:23:38;;;;;;;8.13;2.07;;;19.90;50.60;;;;;;5059939;27;88600;-69
2022/04/07 07:26:08;;;;;;;2.60;1.53;;;19.90;50.60;;;;;;5041280;27;90668;-69
2022/04/07 07:28:36;;;;;;;8.70;1.40;;;19.90;50.60;;;;;;5039154;27;89005;-68
2022/04/07 07:31:05;;;;;;;1.90;1.27;;;19.90;50.50;;;;;;5040066;28;88801;-68
2022/04/07 07:33:33;;;;;;;2.33;1.33;;;19.90;50.50;;;;;;5039346;27;88554;-68
2022/04/07 07:36:01;;;;;;;2.23;1.30;;;19.90;50.50;;;;;;5028000;28;89363;-68
2022/04/07 07:38:29;;;;;;;3.17;1.37;;;19.80;50.40;;;;;;5040246;28;90437;-68
2022/04/07 07:40:57;;;;;;;2.57;1.43;;;19.80;50.40;;;;;;5040224;27;88830;-69
2022/04/07 07:43:26;;;;;;;2.27;1.33;;;19.90;50.40;;;;;;5041047;28;88373;-68
2022/04/07 07:45:54;;;;;;;1.67;0.93;;;19.90;50.30;;;;;;5040355;27;90742;-69
2022/04/07 07:48:27;;;;;;;2.40;1.50;;;19.90;50.30;;;;;;5040894;27;88950;-69
2022/04/07 07:50:55;;;;;;;1.60;1.20;;;19.90;50.30;;;;;;5040866;27;89327;-69
2022/04/07 07:53:23;;;;;;;2.60;1.33;;;19.90;50.20;;;;;;5039729;28;88507;-68
2022/04/07 07:55:53;;;;;;;4.30;1.23;;;19.90;50.80;;;;;;5040553;27;93125;-68
2022/04/07 07:58:22;;;;;;;2.67;1.50;;;19.90;50.20;;;;;;5039591;27;89206;-68
2022/04/07 08:00:51;;;;;;;1.33;1.23;;;19.90;50.10;;;;;;5040032;27;92734;-69
2022/04/07 08:03:19;;;;;;;1.80;1.53;;;19.90;50.10;;;;;;5040454;27;88700;-68
2022/04/07 08:05:47;;;;;;;2.17;1.17;;;20.00;50.20;;;;;;5040278;27;90607;-69
2022/04/07 08:08:16;;;;;;;5.63;1.47;;;19.90;50.00;;;;;;5040578;28;90443;-69
2022/04/07 08:10:44;;;;;;;3.93;1.50;;;20.00;50.10;;;;;;5039386;27;88591;-68
2022/04/07 08:13:12;;;;;;;2.57;1.37;;;20.00;50.00;;;;;;5038844;27;88593;-68
2022/04/07 08:15:40;;;;;;;2.07;1.20;;;19.90;49.90;;;;;;5020236;28;88924;-70
2022/04/07 08:18:10;;;;;;;3.33;1.57;;;20.00;50.00;;;;;;5042388;27;88608;-68
2022/04/07 08:20:38;;;;;;;1.97;1.03;;;20.00;50.00;;;;;;5039499;27;88537;-68
2022/04/07 08:23:06;;;;;;;3.20;1.27;;;20.00;50.00;;;;;;5040141;28;88261;-68
2022/04/07 08:25:34;;;;;;;2.90;1.60;;;20.00;50.00;;;;;;5038988;28;90605;-69
2022/04/07 08:28:03;;;;;;;3.03;1.43;;;20.00;50.00;;;;;;5049566;27;90980;-69
2022/04/07 08:30:34;;;;;;;4.73;1.57;;;20.00;50.00;;;;;;5040556;27;90725;-69
2022/04/07 08:33:02;;;;;;;4.50;1.60;;;20.00;49.90;;;;;;5020334;28;88434;-68
2022/04/07 08:35:32;;;;;;;3.80;1.93;;;20.00;49.90;;;;;;5038113;27;89574;-69
2022/04/07 08:38:00;;;;;;;4.07;2.07;;;20.00;49.90;;;;;;5039573;28;90092;-67
2022/04/07 08:40:28;;;;;;;3.33;1.23;;;20.00;49.90;;;;;;5039933;27;89099;-69
2022/04/07 08:42:56;;;;;;;2.27;1.20;;;20.00;49.80;;;;;;5038917;27;88653;-68
2022/04/07 08:45:25;;;;;;;3.00;1.77;;;19.90;49.80;;;;;;5039079;28;90232;-69
2022/04/07 08:47:53;;;;;;;1.73;1.30;;;20.00;49.80;;;;;;5042882;27;93033;-68
2022/04/07 08:50:23;;;;;;;3.13;1.63;;;19.90;49.80;;;;;;5039099;27;89719;-68
2022/04/07 08:52:53;;;;;;;2.40;1.13;;;19.90;49.80;;;;;;5038573;27;88660;-68
2022/04/07 08:55:21;;;;;;;2.50;1.70;;;20.00;49.80;;;;;;5039445;28;93301;-68
2022/04/07 08:57:49;;;;;;;5.30;1.93;;;19.90;49.70;;;;;;5038735;27;88989;-68
2022/04/07 09:00:18;;;;;;;2.63;1.63;;;20.00;49.80;;;;;;5039738;28;88331;-68
2022/04/07 09:02:47;;;;;;;3.50;1.03;;;19.90;49.70;;;;;;5037583;27;88925;-68
2022/04/07 09:05:17;;;;;;;4.00;1.60;;;20.00;49.70;;;;;;5028871;28;90649;-68
2022/04/07 09:07:46;;;;;;;1.50;1.33;;;19.90;49.70;;;;;;5043750;27;88778;-68
2022/04/07 09:10:18;;;;;;;3.50;1.27;;;19.90;50.20;;;;;;5039283;27;88287;-68
2022/04/07 09:12:46;;;;;;;1.23;1.13;;;19.90;49.60;;;;;;5038795;28;88500;-68
2022/04/07 09:15:14;;;;;;;2.57;1.40;;;19.90;49.60;;;;;;5058096;27;90589;-69
2022/04/07 09:17:52;;;;;;;1.70;1.40;;;19.90;49.60;;;;;;5053807;27;89716;-69
2022/04/07 09:20:21;;;;;;;1.43;1.00;;;19.90;49.60;;;;;;5039211;28;88870;-69
2022/04/07 09:22:56;;;;;;;1.37;1.27;;;20.00;49.60;;;;;;5042309;27;88288;-69
2022/04/07 09:25:25;;;;;;;4.07;1.30;;;20.00;49.60;;;;;;5050939;27;89006;-68
2022/04/07 09:27:57;;;;;;;3.00;1.60;;;20.00;49.60;;;;;;5042548;27;88560;-69
2022/04/07 09:30:26;;;;;;;3.40;1.10;;;20.00;49.60;;;;;;5041142;27;89023;-68
2022/04/07 09:32:54;;;;;;;2.20;1.20;;;20.00;49.50;;;;;;5042451;27;88650;-69
2022/04/07 09:35:22;;;;;;;3.57;1.20;;;20.00;49.50;;;;;;5042264;27;90696;-68
2022/04/07 09:37:50;;;;;;;2.33;1.30;;;20.00;49.50;;;;;;5042446;28;89457;-68
2022/04/07 09:40:18;;;;;;;1.83;1.30;;;20.00;49.40;;;;;;5042371;28;89900;-68
2022/04/07 09:42:49;;;;;;;2.07;1.20;;;20.00;49.40;;;;;;5043316;27;88581;-68
2022/04/07 09:45:20;;;;;;;2.20;0.90;;;20.00;49.40;;;;;;5043107;27;89274;-68
2022/04/07 09:47:49;;;;;;;2.60;1.03;;;20.00;49.40;;;;;;5041604;27;89149;-69
2022/04/07 09:50:21;;;;;;;1.83;1.00;;;20.00;49.40;;;;;;5041794;28;88866;-70
2022/04/07 09:52:56;;;;;;;2.20;1.00;;;20.00;49.40;;;;;;5041876;27;88485;-68
2022/04/07 09:55:26;;;;;;;1.60;1.10;;;20.00;49.30;;;;;;5042143;28;90748;-69
2022/04/07 09:57:55;;;;;;;2.70;1.03;;;20.00;49.30;;;;;;5042434;27;90062;-68
2022/04/07 10:00:24;;;;;;;5.83;1.73;;;20.00;49.30;;;;;;5041872;27;88282;-68
2022/04/07 10:02:52;;;;;;;1.70;1.20;;;20.00;49.30;;;;;;5043579;27;88524;-68
2022/04/07 10:05:20;;;;;;;4.00;1.03;;;20.00;49.20;;;;;;5051119;27;90381;-69
2022/04/07 10:07:48;;;;;;;5.10;1.30;;;20.00;49.20;;;;;;5041744;27;90125;-68
2022/04/07 10:10:18;;;;;;;2.23;0.80;;;19.80;49.00;;;;;;5044185;28;91029;-67
2022/04/07 10:12:47;;;;;;;2.40;1.00;;;20.00;49.10;;;;;;5043260;27;88520;-69
2022/04/07 10:15:16;;;;;;;2.23;1.17;;;20.00;49.10;;;;;;5041988;28;90625;-68
2022/04/07 10:17:45;;;;;;;2.17;0.90;;;20.00;49.10;;;;;;5041052;28;90189;-69
2022/04/07 10:20:15;;;;;;;1.67;1.07;;;20.00;49.00;;;;;;5041638;27;89198;-68
2022/04/07 10:22:50;;;;;;;0.97;0.80;;;20.00;49.00;;;;;;5042613;28;88311;-68
2022/04/07 10:25:18;;;;;;;2.63;0.90;;;20.00;49.00;;;;;;5042602;28;89975;-68
2022/04/07 10:27:48;;;;;;;2.53;0.97;;;20.00;48.90;;;;;;5042132;27;90175;-69
2022/04/07 10:30:18;;;;;;;5.53;1.20;;;20.00;49.00;;;;;;5041716;27;92016;-67
2022/04/07 10:32:46;;;;;;;2.40;1.30;;;20.00;48.90;;;;;;5044470;27;88416;-66
2022/04/07 10:35:29;;;;;;;3.23;1.47;;;20.00;48.90;;;;;;5040657;27;91171;-66
2022/04/07 10:37:58;;;;;;;1.57;0.80;;;20.00;48.90;;;;;;5041702;27;92616;-67
2022/04/07 10:40:39;;;;;;;1.47;0.77;;;20.10;49.00;;;;;;5042207;27;88785;-69
2022/04/07 10:43:18;;;;;;;8.13;1.20;;;20.10;49.00;;;;;;5033802;28;88565;-66
2022/04/07 10:45:49;;;;;;;0.53;0.40;;;20.10;48.90;;;;;;5060200;27;89959;-67
2022/04/07 10:48:25;;;;;;;1.60;0.70;;;20.30;48.90;;;;;;5041803;27;92485;-67
2022/04/07 10:50:55;;;;;;;3.50;0.90;;;20.40;48.90;;;;;;5031584;27;88801;-70
2022/04/07 10:53:25;;;;;;;10.50;1.60;;;20.50;48.80;;;;;;5041271;27;88547;-69
2022/04/07 10:55:57;;;;;;;1.13;0.70;;;20.70;48.80;;;;;;5041603;28;92429;-70
2022/04/07 10:58:49;;;;;;;1.30;0.80;;;20.90;48.70;;;;;;5040644;27;89188;-69
2022/04/07 11:01:51;;;;;;;1.67;0.67;;;21.10;48.50;;;;;;5033300;28;88803;-70
2022/04/07 11:04:56;;;;;;;3.60;1.10;;;21.40;48.40;;;;;;5040946;28;88435;-70
2022/04/07 11:07:24;;;;;;;3.27;0.93;;;21.60;48.20;;;;;;5034925;28;91811;-70
2022/04/07 11:10:11;;;;;;;1.33;0.60;;;21.90;48.00;;;;;;5040979;28;90176;-70
2022/04/07 11:12:43;;;;;;;2.43;0.80;;;;;;;;;;5041098;28;88418;-69
2022/04/07 11:15:19;;;;;;;4.50;1.47;;;22.30;47.20;;;;;;5041171;28;88479;-70
2022/04/07 11:17:53;;;;;;;5.87;0.87;;;22.40;47.60;;;;;;5040428;27;90737;-70
2022/04/07 11:20:21;;;;;;;2.17;0.77;;;22.80;46.90;;;;;;5040868;28;90051;-70
2022/04/07 11:22:51;;;;;;;3.23;0.90;;;22.70;47.30;;;;;;5040885;28;89838;-70
2022/04/07 11:25:26;;;;;;;1.53;0.80;;;22.90;47.30;;;;;;5041221;28;88490;-70
2022/04/07 11:28:10;;;;;;;2.37;0.80;;;23.00;47.10;;;;;;5040466;28;91553;-69
2022/04/07 11:30:40;;;;;;;1.10;0.70;;;23.20;47.10;;;;;;5050420;27;93301;-68
2022/04/07 11:33:40;;;;;;;4.07;1.00;;;23.30;46.90;;;;;;5052833;27;88630;-67
2022/04/07 11:36:38;;;;;;;2.33;0.73;;;23.50;47.00;;;;;;5019703;28;88614;-69
2022/04/07 11:39:10;;;;;;;0.90;0.70;;;23.50;46.70;;;;;;5049681;27;90625;-67
2022/04/07 11:41:42;;;;;;;0.70;0.70;;;23.60;46.70;;;;;;5059741;27;90007;-67
2022/04/07 11:44:12;;;;;;;24.10;1.10;;;23.60;46.60;;;;;;5058882;27;89015;-66
2022/04/07 11:46:40;;;;;;;2.73;0.90;;;23.60;46.60;;;;;;5042449;27;88654;-70
2022/04/07 11:49:11;;;;;;;2.43;0.80;;;23.50;46.50;;;;;;5045071;27;90379;-69
2022/04/07 11:51:40;;;;;;;2.27;1.00;;;23.50;46.60;;;;;;5040340;27;91389;-68
2022/04/07 11:54:08;;;;;;;9.87;1.03;;;23.50;46.60;;;;;;5039743;27;89255;-68
2022/04/07 11:56:39;;;;;;;1.57;0.80;;;23.40;46.50;;;;;;5040785;27;88497;-69
2022/04/07 11:59:07;;;;;;;2.63;0.80;;;23.30;46.40;;;;;;5040102;28;90982;-69
2022/04/07 12:01:37;;;;;;;4.13;0.80;;;23.30;46.40;;;;;;5039494;27;90141;-68
2022/04/07 12:04:06;;;;;;;1.73;0.83;;;23.30;46.40;;;;;;5040950;27;91385;-69
2022/04/07 12:06:43;;;;;;;1.77;0.73;;;23.20;46.40;;;;;;5040481;28;88750;-69
2022/04/07 12:09:12;;;;;;;3.77;1.17;;;23.10;46.30;;;;;;5040625;28;90507;-69
2022/04/07 12:11:40;;;;;;;1.83;0.90;;;23.10;46.40;;;;;;5040953;28;92209;-69
2022/04/07 12:14:09;;;;;;;2.20;0.80;;;23.00;46.40;;;;;;5040674;28;89752;-69
2022/04/07 12:16:44;;;;;;;2.80;0.93;;;23.00;47.00;;;;;;5039747;27;88664;-69
2022/04/07 12:19:13;;;;;;;1.00;0.87;;;22.90;46.40;;;;;;5040198;27;90613;-68
2022/04/07 12:21:56;;;;;;;2.63;0.90;;;22.80;46.30;;;;;;5039887;28;90104;-68
2022/04/07 12:24:24;;;;;;;1.33;0.80;;;22.70;46.30;;;;;;5040235;28;88405;-69
2022/04/07 12:26:53;;;;;;;4.23;1.27;;;22.70;46.30;;;;;;5040829;28;88414;-68
2022/04/07 12:29:24;;;;;;;4.07;1.10;;;22.70;46.30;;;;;;5039943;27;90569;-68
2022/04/07 12:31:59;;;;;;;0.90;0.53;;;22.60;46.20;;;;;;5040228;27;90476;-69
2022/04/07 12:34:28;;;;;;;2.37;0.90;;;22.60;46.30;;;;;;5040083;28;88912;-69
2022/04/07 12:36:57;;;;;;;0.90;0.73;;;22.60;46.30;;;;;;5039925;28;88415;-69
2022/04/07 12:39:31;;;;;;;0.90;0.70;;;22.50;46.30;;;;;;5040887;27;90020;-69
2022/04/07 12:42:08;;;;;;;3.73;0.97;;;22.50;46.30;;;;;;5040844;28;91484;-69
2022/04/07 12:44:38;;;;;;;1.67;0.73;;;22.40;46.20;;;;;;5040159;27;89094;-69
2022/04/07 12:47:11;;;;;;;3.13;0.80;;;22.40;46.20;;;;;;5040370;27;88832;-68
2022/04/07 12:49:40;;;;;;;1.70;1.00;;;22.30;46.20;;;;;;5040238;27;90546;-69
2022/04/07 12:52:11;;;;;;;3.13;0.70;;;22.30;46.20;;;;;;5039959;28;93120;-68
2022/04/07 12:54:55;;;;;;;2.40;0.70;;;22.30;46.30;;;;;;5039531;27;88834;-68
2022/04/07 12:57:23;;;;;;;2.10;0.63;;;22.20;46.10;;;;;;5042181;28;88423;-68
2022/04/07 12:59:54;;;;;;;2.93;0.80;;;22.20;46.10;;;;;;5043273;28;90873;-68
2022/04/07 13:02:22;;;;;;;5.47;1.43;;;22.20;46.10;;;;;;5043207;28;90073;-69